RYR016 LFML-LEMH
Flight info
| Callsign | RYR016 |
|---|---|
| Flight time | 0h 49m |
| Altitude | 31000 |
| Route | VATIR N852 VERSO L16 SARGO |
| Aircraft | B738/M-SDE2E3FGHIRWXY/LB1 |
Departure
| Time | 2026-04-23 19:38 |
|---|---|
| Airport | Marseille Provence Airport (LFML) |
Arrival
| Time | 2026-04-23 20:28 |
|---|---|
| Airport | Menorca Airport (LEMH) |
| Time | Latitude | Longitude | Altitude | Speed | Heading |
|---|---|---|---|---|---|
| 2026-04-23 19:32 | 43.44255 | 5.21868 | 32 ft | 0 kts | 89° |
| 2026-04-23 19:33 | 43.44253 | 5.21878 | 32 ft | 3 kts | 111° |
| 2026-04-23 19:33 | 43.44152 | 5.21847 | 33 ft | 12 kts | 212° |
| 2026-04-23 19:34 | 43.44083 | 5.21771 | 33 ft | 13 kts | 222° |
| 2026-04-23 19:34 | 43.44013 | 5.21680 | 33 ft | 14 kts | 224° |
| 2026-04-23 19:34 | 43.43963 | 5.21424 | 30 ft | 19 kts | 313° |
| 2026-04-23 19:35 | 43.44064 | 5.21281 | 27 ft | 22 kts | 313° |
| 2026-04-23 19:35 | 43.44178 | 5.21116 | 24 ft | 25 kts | 312° |
| 2026-04-23 19:35 | 43.44289 | 5.20921 | 21 ft | 27 kts | 302° |
| 2026-04-23 19:35 | 43.44400 | 5.20731 | 18 ft | 25 kts | 313° |
| 2026-04-23 19:36 | 43.44529 | 5.20548 | 17 ft | 27 kts | 314° |
| 2026-04-23 19:36 | 43.44665 | 5.20354 | 16 ft | 28 kts | 312° |
| 2026-04-23 19:36 | 43.44804 | 5.20158 | 16 ft | 27 kts | 314° |
| 2026-04-23 19:36 | 43.44937 | 5.19959 | 16 ft | 24 kts | 311° |
| 2026-04-23 19:37 | 43.44965 | 5.19832 | 16 ft | 11 kts | 238° |
| 2026-04-23 19:37 | 43.44906 | 5.19782 | 16 ft | 9 kts | 186° |
| 2026-04-23 19:37 | 43.44855 | 5.19816 | 16 ft | 0 kts | 132° |
| 2026-04-23 19:37 | 43.44788 | 5.19914 | 16 ft | 58 kts | 134° |
| 2026-04-23 19:38 | 43.44246 | 5.20690 | 20 ft | 162 kts | 134° |
| 2026-04-23 19:38 | 43.43381 | 5.21955 | 892 ft | 193 kts | 133° |
| 2026-04-23 19:38 | 43.42432 | 5.23142 | 2266 ft | 190 kts | 142° |
| 2026-04-23 19:38 | 43.41359 | 5.24000 | 3419 ft | 185 kts | 149° |
| 2026-04-23 19:39 | 43.40233 | 5.24850 | 4318 ft | 193 kts | 146° |
| 2026-04-23 19:39 | 43.39076 | 5.25840 | 5172 ft | 205 kts | 144° |
| 2026-04-23 19:39 | 43.37853 | 5.26944 | 6044 ft | 216 kts | 144° |
| 2026-04-23 19:39 | 43.36556 | 5.27981 | 6990 ft | 225 kts | 155° |
| 2026-04-23 19:40 | 43.34981 | 5.28285 | 7817 ft | 241 kts | 184° |
| 2026-04-23 19:40 | 43.33394 | 5.27484 | 8655 ft | 256 kts | 210° |
| 2026-04-23 19:40 | 43.32046 | 5.25912 | 9669 ft | 262 kts | 226° |
| 2026-04-23 19:40 | 43.30917 | 5.23869 | 10472 ft | 277 kts | 234° |
| 2026-04-23 19:41 | 43.29839 | 5.21608 | 11280 ft | 291 kts | 236° |
| 2026-04-23 19:41 | 43.28734 | 5.19263 | 12097 ft | 304 kts | 236° |
| 2026-04-23 19:41 | 43.27557 | 5.16821 | 13090 ft | 310 kts | 236° |
| 2026-04-23 19:41 | 43.26354 | 5.14374 | 14154 ft | 314 kts | 236° |
| 2026-04-23 19:42 | 43.25133 | 5.11914 | 15165 ft | 319 kts | 237° |
| 2026-04-23 19:42 | 43.23885 | 5.09407 | 16206 ft | 323 kts | 237° |
| 2026-04-23 19:42 | 43.22611 | 5.06848 | 17156 ft | 329 kts | 238° |
| 2026-04-23 19:42 | 43.21323 | 5.04263 | 18104 ft | 334 kts | 238° |
| 2026-04-23 19:43 | 43.20000 | 5.01663 | 19076 ft | 338 kts | 237° |
| 2026-04-23 19:43 | 43.18559 | 4.99119 | 19981 ft | 344 kts | 235° |
| 2026-04-23 19:43 | 43.17036 | 4.96592 | 20886 ft | 348 kts | 234° |
| 2026-04-23 19:43 | 43.15480 | 4.94052 | 21735 ft | 353 kts | 235° |
| 2026-04-23 19:44 | 43.13908 | 4.91476 | 22606 ft | 355 kts | 236° |
| 2026-04-23 19:44 | 43.12342 | 4.88890 | 23378 ft | 360 kts | 236° |
| 2026-04-23 19:44 | 43.10738 | 4.86229 | 24200 ft | 363 kts | 236° |
| 2026-04-23 19:44 | 43.09133 | 4.83555 | 24768 ft | 373 kts | 237° |
| 2026-04-23 19:45 | 43.07438 | 4.80816 | 25222 ft | 387 kts | 233° |
| 2026-04-23 19:45 | 43.05494 | 4.78173 | 25683 ft | 403 kts | 226° |
| 2026-04-23 19:45 | 43.03236 | 4.75838 | 26109 ft | 419 kts | 219° |
| 2026-04-23 19:45 | 43.00697 | 4.73681 | 26592 ft | 431 kts | 215° |
| 2026-04-23 19:46 | 42.98107 | 4.71688 | 27284 ft | 435 kts | 214° |
| 2026-04-23 19:46 | 42.95442 | 4.69718 | 28111 ft | 435 kts | 213° |
| 2026-04-23 19:46 | 42.92810 | 4.67798 | 28981 ft | 433 kts | 214° |
| 2026-04-23 19:46 | 42.90152 | 4.65855 | 29846 ft | 430 kts | 214° |
| 2026-04-23 19:47 | 42.87540 | 4.63932 | 30618 ft | 428 kts | 214° |
| 2026-04-23 19:47 | 42.84940 | 4.62003 | 31125 ft | 430 kts | 214° |
| 2026-04-23 19:47 | 42.82300 | 4.60026 | 31203 ft | 443 kts | 215° |
| 2026-04-23 19:47 | 42.79541 | 4.57947 | 31188 ft | 458 kts | 214° |
| 2026-04-23 19:48 | 42.76736 | 4.55830 | 31187 ft | 471 kts | 214° |
| 2026-04-23 19:48 | 42.73824 | 4.53634 | 31187 ft | 485 kts | 214° |
| 2026-04-23 19:48 | 42.70827 | 4.51380 | 31187 ft | 491 kts | 214° |
| 2026-04-23 19:49 | 42.64874 | 4.46933 | 31188 ft | 489 kts | 214° |
| 2026-04-23 19:49 | 42.58893 | 4.42476 | 31184 ft | 490 kts | 214° |
| 2026-04-23 19:50 | 42.52966 | 4.38063 | 31185 ft | 489 kts | 214° |
| 2026-04-23 19:50 | 42.46989 | 4.33615 | 31182 ft | 489 kts | 213° |
| 2026-04-23 19:51 | 42.41018 | 4.29177 | 31181 ft | 490 kts | 213° |
| 2026-04-23 19:51 | 42.35091 | 4.24783 | 31178 ft | 488 kts | 213° |
| 2026-04-23 19:52 | 42.29142 | 4.20380 | 31180 ft | 488 kts | 213° |
| 2026-04-23 19:52 | 42.23224 | 4.16007 | 31177 ft | 489 kts | 213° |
| 2026-04-23 19:53 | 42.17241 | 4.11599 | 31177 ft | 488 kts | 213° |
| 2026-04-23 19:53 | 42.11282 | 4.07217 | 31173 ft | 489 kts | 213° |
| 2026-04-23 19:54 | 42.05298 | 4.02827 | 31174 ft | 489 kts | 213° |
| 2026-04-23 19:54 | 41.99379 | 3.98495 | 31175 ft | 489 kts | 213° |
| 2026-04-23 19:55 | 41.93291 | 3.94363 | 31170 ft | 492 kts | 207° |
| 2026-04-23 19:55 | 41.86713 | 3.91738 | 31170 ft | 497 kts | 196° |
| 2026-04-23 19:56 | 41.79900 | 3.90099 | 31170 ft | 499 kts | 192° |
| 2026-04-23 19:56 | 41.73053 | 3.88694 | 31168 ft | 498 kts | 192° |
| 2026-04-23 19:57 | 41.66168 | 3.87245 | 31166 ft | 499 kts | 193° |
| 2026-04-23 19:57 | 41.59366 | 3.85748 | 31165 ft | 499 kts | 193° |
| 2026-04-23 19:58 | 41.52523 | 3.84198 | 31164 ft | 500 kts | 193° |
| 2026-04-23 19:58 | 41.45661 | 3.82627 | 31162 ft | 505 kts | 193° |
| 2026-04-23 19:59 | 41.38736 | 3.81038 | 31010 ft | 506 kts | 193° |
| 2026-04-23 19:59 | 41.35276 | 3.80247 | 30651 ft | 505 kts | 193° |
| 2026-04-23 19:59 | 41.31824 | 3.79460 | 30151 ft | 505 kts | 193° |
| 2026-04-23 19:59 | 41.28399 | 3.78680 | 29581 ft | 504 kts | 193° |
| 2026-04-23 20:00 | 41.24952 | 3.77896 | 29007 ft | 504 kts | 193° |
| 2026-04-23 20:00 | 41.21500 | 3.77116 | 28419 ft | 505 kts | 193° |
| 2026-04-23 20:00 | 41.18013 | 3.76510 | 27849 ft | 508 kts | 188° |
| 2026-04-23 20:00 | 41.14455 | 3.76417 | 27260 ft | 514 kts | 179° |
| 2026-04-23 20:01 | 41.10907 | 3.77072 | 26684 ft | 518 kts | 171° |
| 2026-04-23 20:01 | 41.07380 | 3.78114 | 26089 ft | 519 kts | 168° |
| 2026-04-23 20:01 | 41.03898 | 3.79343 | 25492 ft | 520 kts | 166° |
| 2026-04-23 20:01 | 41.03079 | 3.79649 | 25352 ft | 520 kts | 165° |
| 2026-04-23 20:02 | 41.00466 | 3.80653 | 24906 ft | 518 kts | 165° |
| 2026-04-23 20:02 | 40.97029 | 3.82002 | 24317 ft | 512 kts | 165° |
| 2026-04-23 20:02 | 40.93628 | 3.83333 | 23729 ft | 508 kts | 165° |
| 2026-04-23 20:03 | 40.90241 | 3.84637 | 23150 ft | 504 kts | 165° |
| 2026-04-23 20:03 | 40.86931 | 3.85886 | 22583 ft | 492 kts | 165° |
| 2026-04-23 20:03 | 40.83678 | 3.87094 | 22019 ft | 478 kts | 166° |
| 2026-04-23 20:03 | 40.80520 | 3.88250 | 21469 ft | 466 kts | 166° |
| 2026-04-23 20:04 | 40.77423 | 3.89373 | 20935 ft | 454 kts | 166° |
| 2026-04-23 20:04 | 40.74455 | 3.90443 | 20421 ft | 443 kts | 166° |
| 2026-04-23 20:04 | 40.71505 | 3.91502 | 19906 ft | 432 kts | 166° |
| 2026-04-23 20:04 | 40.68641 | 3.92527 | 19399 ft | 422 kts | 166° |
| 2026-04-23 20:05 | 40.65844 | 3.93527 | 18913 ft | 412 kts | 166° |
| 2026-04-23 20:05 | 40.63118 | 3.94500 | 18433 ft | 403 kts | 166° |
| 2026-04-23 20:05 | 40.60429 | 3.95459 | 17958 ft | 394 kts | 166° |
| 2026-04-23 20:05 | 40.57824 | 3.96388 | 17493 ft | 385 kts | 166° |
| 2026-04-23 20:06 | 40.55275 | 3.97296 | 17046 ft | 377 kts | 166° |
| 2026-04-23 20:06 | 40.52771 | 3.98188 | 16600 ft | 370 kts | 166° |
| 2026-04-23 20:06 | 40.50318 | 3.99062 | 16203 ft | 361 kts | 166° |
| 2026-04-23 20:06 | 40.47948 | 3.99906 | 16136 ft | 343 kts | 166° |
| 2026-04-23 20:07 | 40.45688 | 4.00711 | 16140 ft | 336 kts | 166° |
| 2026-04-23 20:07 | 40.43401 | 4.01523 | 16141 ft | 337 kts | 166° |
| 2026-04-23 20:07 | 40.41145 | 4.02324 | 16138 ft | 337 kts | 166° |
| 2026-04-23 20:07 | 40.38910 | 4.03116 | 16140 ft | 337 kts | 166° |
| 2026-04-23 20:08 | 40.36634 | 4.03924 | 16141 ft | 337 kts | 166° |
| 2026-04-23 20:08 | 40.34377 | 4.04723 | 16138 ft | 338 kts | 166° |
| 2026-04-23 20:08 | 40.32110 | 4.05518 | 16138 ft | 337 kts | 168° |
| 2026-04-23 20:08 | 40.29802 | 4.05743 | 16138 ft | 333 kts | 188° |
| 2026-04-23 20:09 | 40.27544 | 4.05173 | 16060 ft | 328 kts | 198° |
| 2026-04-23 20:09 | 40.25358 | 4.04366 | 15746 ft | 321 kts | 200° |
| 2026-04-23 20:09 | 40.23219 | 4.03571 | 15369 ft | 322 kts | 199° |
| 2026-04-23 20:09 | 40.21035 | 4.02822 | 14970 ft | 325 kts | 197° |
| 2026-04-23 20:10 | 40.18866 | 4.02141 | 14581 ft | 320 kts | 196° |
| 2026-04-23 20:10 | 40.16721 | 4.01509 | 14205 ft | 316 kts | 195° |
| 2026-04-23 20:10 | 40.14581 | 4.00897 | 13823 ft | 311 kts | 195° |
| 2026-04-23 20:10 | 40.12456 | 4.00291 | 13440 ft | 314 kts | 195° |
| 2026-04-23 20:11 | 40.10331 | 3.99684 | 13056 ft | 315 kts | 195° |
| 2026-04-23 20:11 | 40.08201 | 3.99076 | 12666 ft | 310 kts | 195° |
| 2026-04-23 20:11 | 40.06125 | 3.98484 | 12291 ft | 306 kts | 195° |
| 2026-04-23 20:11 | 40.04063 | 3.97894 | 11925 ft | 303 kts | 195° |
| 2026-04-23 20:12 | 40.01992 | 3.97298 | 11559 ft | 308 kts | 195° |
| 2026-04-23 20:12 | 39.99837 | 3.96678 | 11168 ft | 321 kts | 195° |
| 2026-04-23 20:12 | 39.97661 | 3.96057 | 10772 ft | 321 kts | 195° |
| 2026-04-23 20:12 | 39.95478 | 3.95438 | 10363 ft | 319 kts | 194° |
| 2026-04-23 20:13 | 39.93316 | 3.94826 | 10050 ft | 315 kts | 194° |
| 2026-04-23 20:13 | 39.91177 | 3.94217 | 9763 ft | 318 kts | 194° |
| 2026-04-23 20:13 | 39.89050 | 3.93627 | 9395 ft | 313 kts | 192° |
| 2026-04-23 20:13 | 39.86896 | 3.93296 | 8935 ft | 312 kts | 183° |
| 2026-04-23 20:14 | 39.84719 | 3.93398 | 8423 ft | 312 kts | 174° |
| 2026-04-23 20:14 | 39.82591 | 3.93825 | 7994 ft | 308 kts | 168° |
| 2026-04-23 20:14 | 39.80533 | 3.94470 | 7627 ft | 303 kts | 164° |
| 2026-04-23 20:14 | 39.78526 | 3.95296 | 7263 ft | 300 kts | 158° |
| 2026-04-23 20:15 | 39.76633 | 3.96393 | 6906 ft | 296 kts | 150° |
| 2026-04-23 20:15 | 39.74882 | 3.97715 | 6565 ft | 292 kts | 145° |
| 2026-04-23 20:15 | 39.73206 | 3.99231 | 6204 ft | 289 kts | 141° |
| 2026-04-23 20:15 | 39.71692 | 4.00857 | 5870 ft | 284 kts | 135° |
| 2026-04-23 20:16 | 39.70319 | 4.02683 | 5653 ft | 280 kts | 129° |
| 2026-04-23 20:16 | 39.69078 | 4.04653 | 5350 ft | 279 kts | 124° |
| 2026-04-23 20:16 | 39.67988 | 4.06695 | 5013 ft | 274 kts | 120° |
| 2026-04-23 20:16 | 39.67075 | 4.08815 | 4687 ft | 270 kts | 114° |
| 2026-04-23 20:17 | 39.66308 | 4.11025 | 4369 ft | 266 kts | 110° |
| 2026-04-23 20:17 | 39.65694 | 4.13246 | 4175 ft | 262 kts | 104° |
| 2026-04-23 20:17 | 39.65650 | 4.15585 | 4064 ft | 261 kts | 74° |
| 2026-04-23 20:17 | 39.66618 | 4.17539 | 3941 ft | 265 kts | 43° |
| 2026-04-23 20:18 | 39.68271 | 4.18590 | 3590 ft | 269 kts | 15° |
| 2026-04-23 20:18 | 39.70135 | 4.18834 | 3283 ft | 269 kts | 6° |
| 2026-04-23 20:18 | 39.72012 | 4.18964 | 3001 ft | 270 kts | 7° |
| 2026-04-23 20:18 | 39.73869 | 4.19213 | 2631 ft | 266 kts | 11° |
| 2026-04-23 20:19 | 39.75684 | 4.19585 | 2280 ft | 264 kts | 13° |
| 2026-04-23 20:19 | 39.77504 | 4.20001 | 1930 ft | 264 kts | 14° |
| 2026-04-23 20:19 | 39.79308 | 4.20401 | 1718 ft | 261 kts | 13° |
| 2026-04-23 20:19 | 39.81119 | 4.20775 | 1721 ft | 264 kts | 15° |
| 2026-04-23 20:20 | 39.82710 | 4.21726 | 1638 ft | 244 kts | 45° |
| 2026-04-23 20:20 | 39.83513 | 4.23622 | 1737 ft | 254 kts | 81° |
| 2026-04-23 20:20 | 39.83656 | 4.25921 | 2852 ft | 262 kts | 87° |
| 2026-04-23 20:20 | 39.83736 | 4.28253 | 3019 ft | 253 kts | 87° |
| 2026-04-23 20:21 | 39.83759 | 4.30456 | 2989 ft | 236 kts | 96° |
| 2026-04-23 20:21 | 39.83104 | 4.32318 | 2991 ft | 225 kts | 131° |
| 2026-04-23 20:21 | 39.81827 | 4.33443 | 2993 ft | 223 kts | 148° |
| 2026-04-23 20:21 | 39.80447 | 4.34377 | 2994 ft | 219 kts | 148° |
| 2026-04-23 20:22 | 39.79044 | 4.34965 | 2986 ft | 213 kts | 175° |
| 2026-04-23 20:22 | 39.77625 | 4.34488 | 2994 ft | 207 kts | 199° |
| 2026-04-23 20:22 | 39.76352 | 4.33745 | 2993 ft | 197 kts | 199° |
| 2026-04-23 20:22 | 39.75099 | 4.33014 | 2992 ft | 197 kts | 199° |
| 2026-04-23 20:23 | 39.73850 | 4.32285 | 2992 ft | 196 kts | 199° |
| 2026-04-23 20:23 | 39.72723 | 4.31245 | 2987 ft | 203 kts | 232° |
| 2026-04-23 20:23 | 39.72235 | 4.29594 | 2992 ft | 194 kts | 256° |
| 2026-04-23 20:23 | 39.71948 | 4.27928 | 2987 ft | 184 kts | 261° |
| 2026-04-23 20:24 | 39.72089 | 4.26283 | 2987 ft | 184 kts | 289° |
| 2026-04-23 20:24 | 39.72477 | 4.24712 | 2983 ft | 183 kts | 291° |
| 2026-04-23 20:24 | 39.73172 | 4.23396 | 2978 ft | 175 kts | 332° |
| 2026-04-23 20:24 | 39.74247 | 4.22838 | 2912 ft | 162 kts | 348° |
| 2026-04-23 20:25 | 39.75351 | 4.22307 | 2430 ft | 181 kts | 342° |
| 2026-04-23 20:25 | 39.76520 | 4.21607 | 1873 ft | 187 kts | 339° |
| 2026-04-23 20:25 | 39.77586 | 4.20932 | 2061 ft | 159 kts | 340° |
| 2026-04-23 20:25 | 39.78603 | 4.20395 | 2302 ft | 154 kts | 355° |
| 2026-04-23 20:26 | 39.79659 | 4.20416 | 2069 ft | 152 kts | 13° |
| 2026-04-23 20:26 | 39.80731 | 4.20616 | 1455 ft | 162 kts | 16° |
| 2026-04-23 20:26 | 39.81837 | 4.20965 | 893 ft | 164 kts | 16° |
| 2026-04-23 20:26 | 39.82904 | 4.21220 | 736 ft | 144 kts | 10° |
| 2026-04-23 20:27 | 39.83859 | 4.21367 | 595 ft | 139 kts | 11° |
| 2026-04-23 20:27 | 39.84829 | 4.21575 | 386 ft | 140 kts | 11° |
| 2026-04-23 20:27 | 39.85768 | 4.21757 | 294 ft | 132 kts | 11° |
| 2026-04-23 20:27 | 39.86462 | 4.21907 | 298 ft | 55 kts | 8° |
| 2026-04-23 20:28 | 39.86670 | 4.21952 | 299 ft | 26 kts | 12° |
| 2026-04-23 20:28 | 39.86842 | 4.22047 | 299 ft | 27 kts | 41° |
| 2026-04-23 20:28 | 39.86927 | 4.22155 | 298 ft | 0 kts | 53° |
| 2026-04-23 20:29 | 39.86932 | 4.22165 | 298 ft | 5 kts | 62° |
| 2026-04-23 20:29 | 39.86883 | 4.22228 | 297 ft | 14 kts | 177° |
| 2026-04-23 20:29 | 39.86772 | 4.22208 | 292 ft | 18 kts | 190° |
| 2026-04-23 20:29 | 39.86637 | 4.22180 | 285 ft | 19 kts | 188° |
| 2026-04-23 20:30 | 39.86547 | 4.22216 | 278 ft | 14 kts | 110° |
| 2026-04-23 20:30 | 39.86533 | 4.22396 | 275 ft | 7 kts | 98° |
| 2026-04-23 20:30 | 39.86529 | 4.22422 | 276 ft | 0 kts | 98° |